createdAt,value
2023-04-18T00:01:09.865Z,5.50
2023-04-18T00:03:38.353Z,5.41
2023-04-18T00:06:05.905Z,5.32
2023-04-18T00:08:35.643Z,5.36
2023-04-18T00:11:02.193Z,5.20
2023-04-18T00:13:28.787Z,5.09
2023-04-18T00:15:57.465Z,5.13
2023-04-18T00:18:27.919Z,5.18
2023-04-18T00:20:54.610Z,5.16
2023-04-18T00:23:22.446Z,5.14
2023-04-18T00:25:48.922Z,5.14
2023-04-18T00:28:17.671Z,5.23
2023-04-18T00:30:45.752Z,5.29
2023-04-18T00:33:12.240Z,5.25
2023-04-18T00:35:38.854Z,5.29
2023-04-18T00:38:07.180Z,5.33
2023-04-18T00:40:38.889Z,5.34
2023-04-18T00:43:07.685Z,5.36
2023-04-18T00:45:34.663Z,5.41
2023-04-18T00:48:02.109Z,5.41
2023-04-18T00:50:28.963Z,5.38
2023-04-18T00:52:56.317Z,5.40
2023-04-18T00:55:23.970Z,5.46
2023-04-18T00:57:50.989Z,5.41
2023-04-18T01:00:22.477Z,5.41
2023-04-18T01:02:53.223Z,5.41
2023-04-18T01:05:21.498Z,5.49
2023-04-18T01:07:50.287Z,5.43
2023-04-18T01:10:16.781Z,5.47
2023-04-18T01:12:43.288Z,5.55
2023-04-18T01:15:12.317Z,5.56
2023-04-18T01:17:39.721Z,5.61
2023-04-18T01:20:06.915Z,5.61
2023-04-18T01:22:45.345Z,5.61
2023-04-18T01:25:13.345Z,5.55
2023-04-18T01:27:39.866Z,5.58
2023-04-18T01:30:09.254Z,5.56
2023-04-18T01:32:35.955Z,5.54
2023-04-18T01:35:02.588Z,5.59
2023-04-18T01:37:33.442Z,5.56
2023-04-18T01:40:00.040Z,5.62
2023-04-18T01:42:26.575Z,5.64
2023-04-18T01:44:53.272Z,5.72
2023-04-18T01:47:20.318Z,5.73
2023-04-18T01:49:48.332Z,5.68
2023-04-18T01:52:15.000Z,5.61
2023-04-18T01:54:41.557Z,5.63
2023-04-18T01:57:08.215Z,5.69
2023-04-18T01:59:43.438Z,5.69
2023-04-18T02:02:11.361Z,5.69
2023-04-18T02:04:37.968Z,5.67
2023-04-18T02:07:05.000Z,5.70
2023-04-18T02:09:31.930Z,5.74
2023-04-18T02:11:59.627Z,5.72
2023-04-18T02:14:29.437Z,5.76
2023-04-18T02:16:55.998Z,5.70
2023-04-18T02:19:22.584Z,5.74
2023-04-18T02:21:55.880Z,5.79
2023-04-18T02:24:22.360Z,5.83
2023-04-18T02:26:49.703Z,5.83
2023-04-18T02:29:16.412Z,5.83
2023-04-18T02:31:42.977Z,5.89
2023-04-18T02:34:09.679Z,5.89
2023-04-18T02:36:38.209Z,5.89
2023-04-18T02:39:04.718Z,5.93
2023-04-18T02:41:31.268Z,5.95
2023-04-18T02:44:00.403Z,5.91
2023-04-18T02:46:28.796Z,5.95
2023-04-18T02:48:55.642Z,5.95
2023-04-18T02:51:22.289Z,5.98
2023-04-18T02:53:48.788Z,5.97
2023-04-18T02:56:17.191Z,5.97
2023-04-18T02:58:43.814Z,5.97
2023-04-18T03:01:10.993Z,6.00
2023-04-18T03:03:37.508Z,6.01
2023-04-18T03:06:06.487Z,5.99
2023-04-18T03:08:33.053Z,5.96
2023-04-18T03:10:59.787Z,5.95
2023-04-18T03:13:28.221Z,5.98
2023-04-18T03:15:54.790Z,6.02
2023-04-18T03:18:21.363Z,6.03
2023-04-18T03:20:49.718Z,6.06
2023-04-18T03:23:16.239Z,6.06
2023-04-18T03:25:42.772Z,6.03
2023-04-18T03:28:14.523Z,6.03
2023-04-18T03:30:42.713Z,5.99
2023-04-18T03:33:09.255Z,6.00
2023-04-18T03:35:37.610Z,6.02
2023-04-18T03:38:04.131Z,6.03
2023-04-18T03:40:30.694Z,6.00
2023-04-18T03:42:57.318Z,5.98
2023-04-18T03:45:23.787Z,5.98
2023-04-18T03:47:50.408Z,5.96
2023-04-18T03:50:17.299Z,5.96
2023-04-18T03:52:43.746Z,5.95
2023-04-18T03:55:11.456Z,5.98
2023-04-18T03:57:40.831Z,5.95
2023-04-18T04:00:08.663Z,5.97
2023-04-18T04:02:35.347Z,5.99
2023-04-18T04:05:04.449Z,6.00
2023-04-18T04:07:32.181Z,5.98
2023-04-18T04:09:58.811Z,6.00
2023-04-18T04:12:27.619Z,6.02
2023-04-18T04:14:59.623Z,6.03
2023-04-18T04:17:26.431Z,6.03
2023-04-18T04:19:55.448Z,6.03
2023-04-18T04:22:21.907Z,6.03
2023-04-18T04:24:48.400Z,6.03
2023-04-18T04:27:19.416Z,6.02
2023-04-18T04:29:45.946Z,6.01
2023-04-18T04:32:12.951Z,5.98
2023-04-18T04:34:43.099Z,5.97
2023-04-18T04:37:09.620Z,5.96
2023-04-18T04:39:37.968Z,5.99
2023-04-18T04:42:04.745Z,6.01
2023-04-18T04:44:31.470Z,5.98
2023-04-18T04:46:57.976Z,5.97
2023-04-18T04:49:29.021Z,5.98
2023-04-18T04:51:56.043Z,6.00
2023-04-18T04:54:22.519Z,6.01
2023-04-18T04:56:50.776Z,6.03
2023-04-18T04:59:17.634Z,6.04
2023-04-18T05:01:44.256Z,6.05
2023-04-18T05:04:11.146Z,6.07
2023-04-18T05:06:40.188Z,6.07
2023-04-18T05:09:06.918Z,6.08
2023-04-18T05:11:39.966Z,6.11
2023-04-18T05:14:06.522Z,6.11
2023-04-18T05:16:33.528Z,6.12
2023-04-18T05:19:02.549Z,6.12
2023-04-18T05:21:32.781Z,6.11
2023-04-18T05:23:59.251Z,6.10
2023-04-18T05:26:27.709Z,6.10
2023-04-18T05:28:54.243Z,6.10
2023-04-18T05:31:21.786Z,6.12
2023-04-18T05:33:54.561Z,6.14
2023-04-18T05:36:22.048Z,6.15
2023-04-18T05:38:48.561Z,6.16
2023-04-18T05:41:15.106Z,6.17
2023-04-18T05:43:51.111Z,6.21
2023-04-18T05:46:28.953Z,6.24
2023-04-18T05:48:57.223Z,6.23
2023-04-18T05:51:23.808Z,6.23
2023-04-18T05:53:50.495Z,6.24
2023-04-18T05:56:17.508Z,6.24
2023-04-18T05:58:47.910Z,6.20
2023-04-18T06:01:14.453Z,6.22
2023-04-18T06:03:41.798Z,6.24
2023-04-18T06:06:08.624Z,6.25
2023-04-18T06:08:35.415Z,6.26
2023-04-18T06:11:02.211Z,6.29
2023-04-18T06:13:28.747Z,6.28
2023-04-18T06:15:55.488Z,6.30
2023-04-18T06:18:23.768Z,6.31
2023-04-18T06:20:53.066Z,6.33
2023-04-18T06:23:19.635Z,6.35
2023-04-18T06:25:46.366Z,6.37
2023-04-18T06:28:13.144Z,6.37
2023-04-18T06:30:39.681Z,6.37
2023-04-18T06:33:12.210Z,6.38
2023-04-18T06:35:40.627Z,6.40
2023-04-18T06:38:07.291Z,6.39
2023-04-18T06:40:33.980Z,6.40
2023-04-18T06:43:00.608Z,6.39
2023-04-18T06:45:27.177Z,6.40
2023-04-18T06:47:53.994Z,6.44
2023-04-18T06:50:20.570Z,6.44
2023-04-18T06:52:47.207Z,6.47
2023-04-18T06:55:15.643Z,6.48
2023-04-18T06:57:42.997Z,6.51
2023-04-18T07:00:10.583Z,6.53
2023-04-18T07:02:46.904Z,6.54
2023-04-18T07:05:13.616Z,6.56
2023-04-18T07:07:40.387Z,6.61
2023-04-18T07:10:13.769Z,6.61
2023-04-18T07:12:40.314Z,6.63
2023-04-18T07:15:07.550Z,6.64
2023-04-18T07:17:35.849Z,6.68
2023-04-18T07:22:54.764Z,6.69
2023-04-18T07:25:21.603Z,6.72
2023-04-18T07:27:48.202Z,6.74
2023-04-18T07:30:17.274Z,6.77
2023-04-18T07:32:43.837Z,6.75
2023-04-18T07:35:10.658Z,6.75
2023-04-18T07:37:39.449Z,6.76
2023-04-18T07:40:06.658Z,6.80
2023-04-18T07:42:33.126Z,6.84
2023-04-18T07:44:59.864Z,6.87
2023-04-18T07:47:30.338Z,6.90
2023-04-18T07:49:57.543Z,6.95
2023-04-18T07:52:24.213Z,6.99
2023-04-18T07:54:50.757Z,7.09
2023-04-18T07:57:17.269Z,7.12
2023-04-18T07:59:50.319Z,7.19
2023-04-18T08:02:16.835Z,7.25
2023-04-18T08:04:43.510Z,7.28
2023-04-18T08:07:12.313Z,7.33
2023-04-18T08:09:38.824Z,7.37
2023-04-18T08:12:05.811Z,7.41
2023-04-18T08:14:34.131Z,7.47
2023-04-18T08:17:00.744Z,7.53
2023-04-18T08:19:27.455Z,7.57
2023-04-18T08:22:08.636Z,7.67
2023-04-18T08:24:35.269Z,7.74
2023-04-18T08:27:02.387Z,7.77
2023-04-18T08:29:29.208Z,7.82
2023-04-18T08:31:55.773Z,7.90
2023-04-18T08:34:22.659Z,7.98
2023-04-18T08:36:51.354Z,8.11
2023-04-18T08:39:17.840Z,8.26
2023-04-18T08:41:51.059Z,8.29
2023-04-18T08:44:24.143Z,8.39
2023-04-18T08:49:45.834Z,8.68
2023-04-18T08:52:19.015Z,8.83
2023-04-18T08:54:47.133Z,8.96
2023-04-18T08:57:23.737Z,8.99
2023-04-18T08:59:56.374Z,9.18
2023-04-18T09:02:38.983Z,9.46
2023-04-18T09:05:18.132Z,9.73
2023-04-18T09:07:45.281Z,9.92
2023-04-18T09:10:13.890Z,10.17
2023-04-18T09:12:51.367Z,10.30
2023-04-18T09:15:27.141Z,10.24
2023-04-18T09:17:58.517Z,10.17
2023-04-18T09:20:37.780Z,10.29
2023-04-18T09:23:14.677Z,10.60
2023-04-18T09:25:46.635Z,10.66
2023-04-18T09:28:31.186Z,10.73
2023-04-18T09:31:07.607Z,10.89
2023-04-18T09:33:34.162Z,11.09
2023-04-18T09:36:22.130Z,11.12
2023-04-18T09:38:55.336Z,11.19
2023-04-18T09:41:23.727Z,11.32
2023-04-18T09:43:50.471Z,11.47
2023-04-18T09:46:22.076Z,11.52
2023-04-18T09:48:48.611Z,11.58
2023-04-18T09:51:16.545Z,11.72
2023-04-18T09:53:49.445Z,11.79
2023-04-18T09:56:27.388Z,11.67
2023-04-18T09:59:21.106Z,11.85
2023-04-18T10:01:49.764Z,12.13
2023-04-18T10:04:17.559Z,12.27
2023-04-18T10:06:46.706Z,12.33
2023-04-18T10:09:16.479Z,12.22
2023-04-18T10:11:44.261Z,12.33
2023-04-18T10:14:14.039Z,12.44
2023-04-18T10:16:44.435Z,12.65
2023-04-18T10:19:29.500Z,12.73
2023-04-18T10:21:58.391Z,12.68
2023-04-18T10:24:49.779Z,12.89
2023-04-18T10:27:41.295Z,13.03
2023-04-18T10:30:09.221Z,13.08
2023-04-18T10:32:36.247Z,13.01
2023-04-18T10:35:03.046Z,12.97
2023-04-18T10:37:31.949Z,12.95
2023-04-18T10:40:02.480Z,12.72
2023-04-18T10:42:51.842Z,12.51
2023-04-18T10:45:23.281Z,12.31
2023-04-18T10:47:50.324Z,12.27
2023-04-18T10:50:18.087Z,12.32
2023-04-18T10:52:44.930Z,12.39
2023-04-18T10:55:17.211Z,12.24
2023-04-18T10:57:45.193Z,12.21
2023-04-18T11:00:18.837Z,12.34
2023-04-18T11:02:52.296Z,12.53
2023-04-18T11:05:22.002Z,12.80
2023-04-18T11:07:49.139Z,12.92
2023-04-18T11:10:27.191Z,12.96
2023-04-18T11:12:54.995Z,12.89
2023-04-18T11:15:24.477Z,12.97
2023-04-18T11:17:59.821Z,13.02
2023-04-18T11:20:29.639Z,12.97
2023-04-18T11:23:04.987Z,13.00
2023-04-18T11:25:36.459Z,12.90
2023-04-18T11:28:04.372Z,12.86
2023-04-18T11:30:43.223Z,13.06
2023-04-18T11:33:14.659Z,13.06
2023-04-18T11:35:49.076Z,12.95
2023-04-18T11:38:16.286Z,13.02
2023-04-18T11:40:49.774Z,12.90
2023-04-18T11:43:24.238Z,13.05
2023-04-18T11:46:01.079Z,13.06
2023-04-18T11:48:37.968Z,12.99
2023-04-18T11:51:06.467Z,12.94
2023-04-18T11:53:34.682Z,12.95
2023-04-18T11:56:05.279Z,13.03
2023-04-18T11:58:36.334Z,13.18
2023-04-18T12:01:37.554Z,13.09
2023-04-18T12:04:08.220Z,12.87
2023-04-18T12:06:55.660Z,12.81
2023-04-18T12:09:26.616Z,12.84
2023-04-18T12:12:05.684Z,13.03
2023-04-18T12:14:32.207Z,13.11
2023-04-18T12:17:03.205Z,12.95
2023-04-18T12:19:30.236Z,12.99
2023-04-18T12:22:03.274Z,13.18
2023-04-18T12:24:29.868Z,13.30
2023-04-18T12:26:58.226Z,13.44
2023-04-18T12:29:28.896Z,13.37
2023-04-18T12:31:55.696Z,13.36
2023-04-18T12:34:22.637Z,13.51
2023-04-18T12:36:49.400Z,13.59
2023-04-18T12:39:18.264Z,13.85
2023-04-18T12:41:48.912Z,13.78
2023-04-18T12:44:16.179Z,13.80
2023-04-18T12:46:42.722Z,13.89
2023-04-18T12:49:11.488Z,14.09
2023-04-18T12:51:40.665Z,14.09
2023-04-18T12:54:07.192Z,14.07
2023-04-18T12:56:33.876Z,14.33
2023-04-18T12:59:00.371Z,14.07
2023-04-18T13:01:27.882Z,14.08
2023-04-18T13:04:11.013Z,14.18
2023-04-18T13:06:39.313Z,14.34
2023-04-18T13:09:12.613Z,14.47
2023-04-18T13:11:39.170Z,14.56
2023-04-18T13:14:05.641Z,14.38
2023-04-18T13:16:32.405Z,14.48
2023-04-18T13:18:59.147Z,14.52
2023-04-18T13:21:26.007Z,14.39
2023-04-18T13:23:54.382Z,14.28
2023-04-18T13:26:20.894Z,14.35
2023-04-18T13:28:47.452Z,14.61
2023-04-18T13:31:22.509Z,14.65
2023-04-18T13:33:48.997Z,14.60
2023-04-18T13:36:15.478Z,14.65
2023-04-18T13:38:42.642Z,14.78
2023-04-18T13:41:12.817Z,14.85
2023-04-18T13:43:40.437Z,14.89
2023-04-18T13:46:08.779Z,14.96
2023-04-18T13:48:35.464Z,14.91
2023-04-18T13:51:02.876Z,14.86
2023-04-18T13:53:31.566Z,14.94
2023-04-18T13:56:01.766Z,15.19
2023-04-18T13:58:28.260Z,15.38
2023-04-18T14:00:54.905Z,15.67
2023-04-18T14:03:21.601Z,15.81
2023-04-18T14:05:48.190Z,15.37
2023-04-18T14:08:14.841Z,15.35
2023-04-18T14:10:41.550Z,15.03
2023-04-18T14:13:08.080Z,15.30
2023-04-18T14:15:35.182Z,15.37
2023-04-18T14:18:01.903Z,15.50
2023-04-18T14:20:36.473Z,15.47
2023-04-18T14:23:03.288Z,15.38
2023-04-18T14:25:30.365Z,15.43
2023-04-18T14:28:13.824Z,15.39
2023-04-18T14:30:40.619Z,15.25
2023-04-18T14:33:08.729Z,15.37
2023-04-18T14:35:35.416Z,15.47
2023-04-18T14:38:01.987Z,15.44
2023-04-18T14:40:33.712Z,15.28
2023-04-18T14:43:00.647Z,15.46
2023-04-18T14:45:27.262Z,15.58
2023-04-18T14:47:55.614Z,15.73
2023-04-18T14:50:24.181Z,15.81
2023-04-18T14:52:51.072Z,15.50
2023-04-18T14:55:19.469Z,15.40
2023-04-18T14:57:53.697Z,15.33
2023-04-18T15:00:20.663Z,15.36
2023-04-18T15:02:47.387Z,15.34
2023-04-18T15:05:14.176Z,15.52
2023-04-18T15:07:42.922Z,15.59
2023-04-18T15:10:12.645Z,15.53
2023-04-18T15:12:41.479Z,15.72
2023-04-18T15:15:08.379Z,15.72
2023-04-18T15:17:35.953Z,15.79
2023-04-18T15:20:07.329Z,15.73
2023-04-18T15:22:34.636Z,15.69
2023-04-18T15:25:01.105Z,15.51
2023-04-18T15:27:29.336Z,15.40
2023-04-18T15:29:56.601Z,15.40
2023-04-18T15:32:23.312Z,15.42
2023-04-18T15:34:50.374Z,15.56
2023-04-18T15:37:16.908Z,15.77
2023-04-18T15:39:43.642Z,15.90
2023-04-18T15:42:10.405Z,15.94
2023-04-18T15:44:40.820Z,16.01
2023-04-18T15:47:07.748Z,16.06
2023-04-18T15:49:34.496Z,16.07
2023-04-18T15:52:06.919Z,15.90
2023-04-18T15:54:33.442Z,15.70
2023-04-18T15:57:01.749Z,15.58
2023-04-18T15:59:28.292Z,15.43
2023-04-18T16:01:56.870Z,15.30
2023-04-18T16:04:26.440Z,15.26
2023-04-18T16:06:52.892Z,15.26
2023-04-18T16:09:19.375Z,15.25
2023-04-18T16:11:47.691Z,15.37
2023-04-18T16:14:14.434Z,15.48
2023-04-18T16:16:41.283Z,15.56
2023-04-18T16:19:07.933Z,15.68
2023-04-18T16:21:34.520Z,15.72
2023-04-18T16:24:03.009Z,15.68
2023-04-18T16:26:31.446Z,15.48
2023-04-18T16:28:58.085Z,15.36
2023-04-18T16:31:24.594Z,15.20
2023-04-18T16:34:01.190Z,15.09
2023-04-18T16:36:34.358Z,14.93
2023-04-18T16:39:05.194Z,14.90
2023-04-18T16:41:31.805Z,14.85
2023-04-18T16:43:58.383Z,14.81
2023-04-18T16:46:25.389Z,14.76
2023-04-18T16:48:53.660Z,14.73
2023-04-18T16:51:20.587Z,14.66
2023-04-18T16:53:47.236Z,14.57
2023-04-18T16:56:14.331Z,14.50
2023-04-18T16:58:41.052Z,14.47
2023-04-18T17:01:08.309Z,14.42
2023-04-18T17:03:41.345Z,14.38
2023-04-18T17:06:07.943Z,14.32
2023-04-18T17:08:34.492Z,14.25
2023-04-18T17:11:04.356Z,14.19
2023-04-18T17:13:32.631Z,14.13
2023-04-18T17:15:59.152Z,14.09
2023-04-18T17:18:25.865Z,14.07
2023-04-18T17:20:52.523Z,14.04
2023-04-18T17:23:19.151Z,14.03
2023-04-18T17:25:52.580Z,13.98
2023-04-18T17:28:19.106Z,13.94
2023-04-18T17:30:45.918Z,13.87
2023-04-18T17:33:14.268Z,13.83
2023-04-18T17:35:44.671Z,13.79
2023-04-18T17:38:11.508Z,13.73
2023-04-18T17:40:38.176Z,13.68
2023-04-18T17:43:04.673Z,13.60
2023-04-18T17:45:31.405Z,13.53
2023-04-18T17:47:59.567Z,13.45
2023-04-18T17:50:26.106Z,13.35
2023-04-18T17:52:52.569Z,13.27
2023-04-18T17:55:21.396Z,13.16
2023-04-18T17:57:49.888Z,13.08
2023-04-18T18:00:17.464Z,13.04
2023-04-18T18:02:44.295Z,13.02
2023-04-18T18:05:16.864Z,12.97
2023-04-18T18:07:47.518Z,12.92
2023-04-18T18:10:19.061Z,12.83
2023-04-18T18:12:46.145Z,12.72
2023-04-18T18:15:14.522Z,12.66
2023-04-18T18:17:41.282Z,12.59
2023-04-18T18:20:09.896Z,12.53
2023-04-18T18:22:39.477Z,12.47
2023-04-18T18:25:06.492Z,12.41
2023-04-18T18:27:33.007Z,12.33
2023-04-18T18:30:01.465Z,12.20
2023-04-18T18:32:28.063Z,12.19
2023-04-18T18:34:54.870Z,12.12
2023-04-18T18:37:25.483Z,12.13
2023-04-18T18:39:54.252Z,12.05
2023-04-18T18:42:20.876Z,11.97
2023-04-18T18:44:49.095Z,11.91
2023-04-18T18:47:17.253Z,11.87
2023-04-18T18:49:44.062Z,11.79
2023-04-18T18:52:10.941Z,11.73
2023-04-18T18:54:37.449Z,11.66
2023-04-18T18:57:04.037Z,11.58
2023-04-18T18:59:32.274Z,11.55
2023-04-18T19:02:02.467Z,11.56
2023-04-18T19:04:29.153Z,11.50
2023-04-18T19:06:55.923Z,11.45
2023-04-18T19:09:22.414Z,11.41
2023-04-18T19:11:54.529Z,11.36
2023-04-18T19:14:23.019Z,11.30
2023-04-18T19:16:50.287Z,11.26
2023-04-18T19:19:17.536Z,11.22
2023-04-18T19:21:50.336Z,11.19
2023-04-18T19:24:17.745Z,11.12
2023-04-18T19:26:44.396Z,11.08
2023-04-18T19:29:13.630Z,11.05
2023-04-18T19:31:40.670Z,11.01
2023-04-18T19:34:11.948Z,10.99
2023-04-18T19:36:38.691Z,10.92
2023-04-18T19:39:05.195Z,10.86
2023-04-18T19:41:31.637Z,10.83
2023-04-18T19:43:58.425Z,10.79
2023-04-18T19:46:24.893Z,10.77
2023-04-18T19:48:51.410Z,10.80
2023-04-18T19:51:19.674Z,10.81
2023-04-18T19:53:46.178Z,10.77
2023-04-18T19:56:14.294Z,10.72
2023-04-18T19:58:46.924Z,10.63
2023-04-18T20:01:16.562Z,10.56
2023-04-18T20:03:43.302Z,10.58
2023-04-18T20:06:12.401Z,10.52
2023-04-18T20:08:43.103Z,10.51
2023-04-18T20:11:10.691Z,10.53
2023-04-18T20:13:39.494Z,10.54
2023-04-18T20:16:07.799Z,10.55
2023-04-18T20:18:37.539Z,10.49
2023-04-18T20:21:07.358Z,10.53
2023-04-18T20:23:37.750Z,10.57
2023-04-18T20:26:04.603Z,10.57
2023-04-18T20:28:32.113Z,10.55
2023-04-18T20:30:58.953Z,10.55
2023-04-18T20:33:25.541Z,10.51
2023-04-18T20:36:03.719Z,10.48
2023-04-18T20:38:31.409Z,10.46
2023-04-18T20:41:00.975Z,10.43
2023-04-18T20:43:29.710Z,10.40
2023-04-18T20:45:58.683Z,10.43
2023-04-18T20:48:25.571Z,10.39
2023-04-18T20:50:54.350Z,10.37
2023-04-18T20:53:22.325Z,10.33
2023-04-18T20:55:48.950Z,10.31
2023-04-18T20:58:23.444Z,10.28
2023-04-18T21:00:50.003Z,10.24
2023-04-18T21:03:16.947Z,10.18
2023-04-18T21:05:46.686Z,10.14
2023-04-18T21:08:13.187Z,10.12
2023-04-18T21:10:42.200Z,10.07
2023-04-18T21:13:11.124Z,10.03
2023-04-18T21:15:38.202Z,10.04
2023-04-18T21:18:04.772Z,10.00
2023-04-18T21:20:31.417Z,9.96
2023-04-18T21:22:58.249Z,9.95
2023-04-18T21:25:24.724Z,9.94
2023-04-18T21:27:51.448Z,9.92
2023-04-18T21:30:18.155Z,9.91
2023-04-18T21:32:46.089Z,9.92
2023-04-18T21:35:20.219Z,9.87
2023-04-18T21:37:47.874Z,9.83
2023-04-18T21:40:14.706Z,9.78
2023-04-18T21:42:43.423Z,9.77
2023-04-18T21:45:11.723Z,9.70
2023-04-18T21:47:38.531Z,9.62
2023-04-18T21:50:05.857Z,9.58
2023-04-18T21:52:32.311Z,9.54
2023-04-18T21:54:59.343Z,9.53
2023-04-18T21:57:35.549Z,9.57
2023-04-18T22:00:08.404Z,9.58
2023-04-18T22:02:45.213Z,9.61
2023-04-18T22:05:12.933Z,9.64
2023-04-18T22:07:54.496Z,9.62
2023-04-18T22:10:25.027Z,9.56
2023-04-18T22:12:54.056Z,9.61
2023-04-18T22:15:20.854Z,9.62
2023-04-18T22:17:52.326Z,9.58
2023-04-18T22:20:18.921Z,9.54
2023-04-18T22:22:45.751Z,9.53
2023-04-18T22:25:12.423Z,9.55
2023-04-18T22:27:42.584Z,9.55
2023-04-18T22:30:09.699Z,9.51
2023-04-18T22:32:38.479Z,9.49
2023-04-18T22:35:06.694Z,9.44
2023-04-18T22:37:33.429Z,9.42
2023-04-18T22:40:00.151Z,9.38
2023-04-18T22:42:26.637Z,9.37
2023-04-18T22:44:53.113Z,9.35
2023-04-18T22:47:25.966Z,9.26
2023-04-18T22:49:54.770Z,9.25
2023-04-18T22:52:24.793Z,9.23
2023-04-18T22:54:56.456Z,9.19
2023-04-18T22:57:22.941Z,9.09
2023-04-18T22:59:49.404Z,9.10
2023-04-18T23:02:21.765Z,9.08
2023-04-18T23:04:49.333Z,9.09
2023-04-18T23:07:16.822Z,9.08
2023-04-18T23:09:45.214Z,9.11
2023-04-18T23:12:11.725Z,9.07
2023-04-18T23:14:41.802Z,9.04
2023-04-18T23:17:08.759Z,9.01
2023-04-18T23:19:35.374Z,8.99
2023-04-18T23:22:01.898Z,8.97
2023-04-18T23:24:38.594Z,8.93
2023-04-18T23:27:07.442Z,8.86
2023-04-18T23:29:39.213Z,8.77
2023-04-18T23:32:06.492Z,8.66
2023-04-18T23:34:34.813Z,8.58
2023-04-18T23:37:03.285Z,8.55
2023-04-18T23:39:29.781Z,8.52
2023-04-18T23:41:56.427Z,8.50
2023-04-18T23:44:23.121Z,8.54
2023-04-18T23:46:49.805Z,8.62
2023-04-18T23:49:20.870Z,8.65
2023-04-18T23:51:47.337Z,8.60
2023-04-18T23:54:14.017Z,8.60
2023-04-18T23:56:49.250Z,8.62
2023-04-18T23:59:15.884Z,8.67
